Time;durP1;ratioP1;P1;durP2;ratioP2;P2;SDS_P1;SDS_P2;PMS_P1;PMS_P2;Temp;Humidity;BMP_temperature;BMP_pressure;BME280_temperature;BME280_humidity;BME280_pressure;Samples;Min_cycle;Max_cycle;Signal;HPM_P1;HPM_P2
2023/01/26 00:02:18;;;;;;;28.75;14.38;;;-0.50;99.90;;;;;;4926559;28;20133;-76
2023/01/26 00:04:43;;;;;;;23.98;14.02;;;-0.50;99.90;;;;;;4950633;28;20490;-76
2023/01/26 00:07:09;;;;;;;29.02;14.20;;;-0.50;99.90;;;;;;4923002;28;20047;-76
2023/01/26 00:09:35;;;;;;;26.42;13.57;;;-0.60;99.90;;;;;;4919591;28;20764;-76
2023/01/26 00:12:01;;;;;;;27.17;15.02;;;-0.50;99.90;;;;;;4930630;28;20047;-78
2023/01/26 00:14:27;;;;;;;25.40;14.40;;;-0.50;99.90;;;;;;4927094;28;20046;-75
2023/01/26 00:16:53;;;;;;;33.85;17.40;;;-0.50;99.90;;;;;;4947111;28;20078;-76
2023/01/26 00:19:19;;;;;;;24.73;14.20;;;-0.40;99.90;;;;;;4930159;29;20079;-76
2023/01/26 00:21:44;;;;;;;27.20;15.25;;;-0.50;99.90;;;;;;4940613;29;20432;-76
2023/01/26 00:24:10;;;;;;;34.67;16.13;;;-0.50;99.90;;;;;;4939915;29;20150;-78
2023/01/26 00:26:36;;;;;;;29.67;14.73;;;-0.50;99.90;;;;;;4914216;28;20147;-77
2023/01/26 00:29:01;;;;;;;31.35;15.18;;;-0.50;99.90;;;;;;4930677;28;20400;-77
2023/01/26 00:31:27;;;;;;;31.65;15.60;;;-0.60;99.90;;;;;;4909481;29;20534;-76
2023/01/26 00:33:54;;;;;;;30.40;15.13;;;-0.50;99.90;;;;;;4920388;29;20048;-76
2023/01/26 00:36:20;;;;;;;37.47;17.63;;;-0.70;99.90;;;;;;4927707;28;20371;-76
2023/01/26 00:38:46;;;;;;;29.02;15.90;;;-0.60;99.90;;;;;;4909720;29;20043;-76
2023/01/26 00:43:56;;;;;;;26.05;14.20;;;-0.70;99.90;;;;;;4929542;29;20051;-76
2023/01/26 00:46:21;;;;;;;32.15;16.83;;;-0.50;99.90;;;;;;4930096;29;20551;-76
2023/01/26 00:48:47;;;;;;;35.40;17.00;;;-0.70;99.90;;;;;;4945941;29;20055;-76
2023/01/26 00:51:16;;;;;;;37.28;16.25;;;-0.70;99.90;;;;;;4939678;29;20068;-76
2023/01/26 00:53:41;;;;;;;29.30;15.38;;;-0.60;99.90;;;;;;4943012;28;20043;-76
2023/01/26 00:56:07;;;;;;;36.30;18.80;;;-0.60;99.90;;;;;;4924945;29;20054;-76
2023/01/26 00:58:33;;;;;;;30.33;15.35;;;-0.50;99.90;;;;;;4947295;28;20047;-76
2023/01/26 01:01:02;;;;;;;33.00;16.23;;;-0.50;99.90;;;;;;4944705;29;20139;-76
2023/01/26 01:03:27;;;;;;;28.95;15.35;;;-0.60;99.90;;;;;;4928998;28;20078;-76
2023/01/26 01:05:53;;;;;;;31.35;15.50;;;-0.50;99.90;;;;;;4947795;28;20101;-77
2023/01/26 01:08:19;;;;;;;30.17;15.75;;;-0.50;99.90;;;;;;4932601;29;20051;-77
2023/01/26 01:10:47;;;;;;;30.70;15.50;;;-0.50;99.90;;;;;;4923143;29;20121;-76
2023/01/26 01:13:13;;;;;;;31.05;16.08;;;-0.60;99.90;;;;;;4925839;29;20040;-78
2023/01/26 01:15:39;;;;;;;34.53;16.00;;;-0.50;99.90;;;;;;4923204;29;20049;-77
2023/01/26 01:18:05;;;;;;;31.02;16.58;;;-0.70;99.90;;;;;;4932596;28;20137;-77
2023/01/26 01:20:30;;;;;;;38.67;18.17;;;-0.70;99.90;;;;;;4942143;28;20050;-78
2023/01/26 01:22:56;;;;;;;33.67;16.10;;;-0.70;99.90;;;;;;4907177;29;20047;-77
2023/01/26 01:25:22;;;;;;;41.95;18.42;;;-0.70;99.90;;;;;;4935937;29;20054;-77
2023/01/26 01:27:48;;;;;;;36.03;17.55;;;-0.70;99.90;;;;;;4938914;29;20051;-78
2023/01/26 01:30:13;;;;;;;38.88;19.08;;;-0.80;99.90;;;;;;4918735;28;20357;-77
2023/01/26 01:32:39;;;;;;;36.30;18.75;;;-0.80;99.90;;;;;;4908417;29;20054;-77
2023/01/26 01:35:06;;;;;;;40.03;18.90;;;-0.70;99.90;;;;;;4927241;29;20098;-77
2023/01/26 01:37:32;;;;;;;44.33;20.50;;;-0.80;99.90;;;;;;4922467;29;20075;-78
2023/01/26 01:39:58;;;;;;;42.03;19.15;;;-0.90;99.90;;;;;;4953607;29;20047;-78
2023/01/26 01:42:24;;;;;;;51.10;22.67;;;-0.90;99.90;;;;;;4927310;28;20429;-76
2023/01/26 01:45:28;;;;;;;44.35;20.52;;;-0.90;99.90;;;;;;4939529;28;20057;-76
2023/01/26 01:47:58;;;;;;;44.90;18.92;;;-1.00;99.90;;;;;;4945692;28;20065;-75
2023/01/26 01:50:24;;;;;;;37.67;17.05;;;-0.90;99.90;;;;;;4926979;29;20475;-75
2023/01/26 01:52:51;;;;;;;36.72;17.67;;;-0.90;99.90;;;;;;4938325;28;20070;-75
2023/01/26 01:55:17;;;;;;;38.95;18.40;;;-0.90;99.90;;;;;;4923672;28;20034;-76
2023/01/26 01:57:46;;;;;;;38.42;18.35;;;-0.80;99.90;;;;;;4933837;29;20062;-75
2023/01/26 02:00:13;;;;;;;42.40;19.42;;;-0.90;99.90;;;;;;4949089;29;20137;-76
2023/01/26 02:02:39;;;;;;;43.37;19.17;;;-1.00;99.90;;;;;;4917686;29;20054;-76
2023/01/26 02:05:30;;;;;;;44.58;19.98;;;-1.00;99.90;;;;;;4933855;28;20286;-77
2023/01/26 02:07:56;;;;;;;49.00;20.50;;;-0.90;99.90;;;;;;4939512;28;20077;-76
2023/01/26 02:10:21;;;;;;;42.25;18.95;;;-0.90;99.90;;;;;;4906469;29;20039;-77
2023/01/26 02:12:49;;;;;;;46.58;20.10;;;-1.00;99.90;;;;;;4946639;29;20044;-77
2023/01/26 02:15:15;;;;;;;45.47;20.08;;;-0.90;99.90;;;;;;4933109;28;20554;-75
2023/01/26 02:17:40;;;;;;;41.05;18.55;;;-1.10;99.90;;;;;;4942412;29;20134;-76
2023/01/26 02:20:27;;;;;;;43.10;18.55;;;-1.10;99.90;;;;;;4942952;29;20127;-76
2023/01/26 02:23:25;;;;;;;43.47;19.00;;;-1.20;99.90;;;;;;4949269;29;20075;-76
2023/01/26 02:25:51;;;;;;;43.97;19.52;;;-1.20;99.90;;;;;;4947303;28;20046;-76
2023/01/26 02:28:18;;;;;;;48.63;20.23;;;-1.20;99.90;;;;;;4949316;28;20054;-76
2023/01/26 02:30:43;;;;;;;47.97;20.65;;;-1.20;99.90;;;;;;4948823;29;20055;-76
2023/01/26 02:33:19;;;;;;;44.65;19.05;;;-1.30;99.90;;;;;;4942601;29;20047;-76
2023/01/26 02:35:45;;;;;;;50.05;21.38;;;-1.20;99.90;;;;;;4942720;29;20051;-76
2023/01/26 02:38:11;;;;;;;50.80;21.50;;;-1.30;99.90;;;;;;4943038;29;20612;-76
2023/01/26 02:40:41;;;;;;;53.50;21.98;;;-1.30;99.90;;;;;;4930126;29;20059;-77
2023/01/26 02:43:07;;;;;;;51.00;21.80;;;-1.30;99.90;;;;;;4946834;28;20051;-76
2023/01/26 02:45:33;;;;;;;58.45;23.23;;;-1.30;99.90;;;;;;4948927;28;20053;-78
2023/01/26 02:48:03;;;;;;;65.93;24.73;;;-1.20;99.90;;;;;;4941265;29;20073;-77
2023/01/26 02:50:29;;;;;;;58.30;25.25;;;-1.40;99.90;;;;;;4945887;28;20904;-78
2023/01/26 02:52:58;;;;;;;57.60;23.67;;;-1.30;99.90;;;;;;4928677;28;20461;-79
2023/01/26 02:55:25;;;;;;;57.33;23.63;;;-1.10;99.90;;;;;;4922473;28;20072;-77
2023/01/26 02:57:52;;;;;;;59.40;25.15;;;-1.10;99.90;;;;;;4925387;28;20544;-77
2023/01/26 03:00:19;;;;;;;59.85;24.67;;;-1.10;99.90;;;;;;4922444;28;20081;-77
2023/01/26 03:02:45;;;;;;;63.87;25.60;;;-1.20;99.90;;;;;;4941386;28;20062;-77
2023/01/26 03:05:11;;;;;;;63.33;26.38;;;-1.20;99.90;;;;;;4911505;28;20062;-77
2023/01/26 03:07:37;;;;;;;76.47;28.35;;;-1.10;99.90;;;;;;4950307;29;20050;-77
2023/01/26 03:10:03;;;;;;;72.20;28.83;;;-1.10;99.90;;;;;;4949840;28;20435;-77
2023/01/26 03:12:29;;;;;;;74.88;27.63;;;-1.10;99.90;;;;;;4925580;29;20452;-77
2023/01/26 03:17:41;;;;;;;62.22;26.00;;;-1.20;99.90;;;;;;4939739;29;20047;-77
2023/01/26 03:28:21;;;;;;;76.78;27.92;;;-1.20;99.90;;;;;;4949716;29;20046;-77
2023/01/26 03:30:51;;;;;;;67.57;25.45;;;-1.10;99.90;;;;;;4924999;28;20138;-77
2023/01/26 03:33:17;;;;;;;69.97;27.55;;;-1.10;99.90;;;;;;4911228;28;20070;-77
2023/01/26 03:35:42;;;;;;;72.90;27.30;;;-1.10;99.90;;;;;;4912618;28;20453;-77
2023/01/26 03:38:08;;;;;;;66.55;26.27;;;-1.20;99.90;;;;;;4945494;29;20047;-78
2023/01/26 03:57:00;;;;;;;61.95;25.23;;;-1.20;99.90;;;;;;4944844;29;20046;-76
2023/01/26 03:59:37;;;;;;;67.65;25.38;;;-1.10;99.90;;;;;;4929967;28;20051;-76
2023/01/26 04:10:21;;;;;;;59.83;23.13;;;-1.10;99.90;;;;;;4934734;28;20123;-77
2023/01/26 04:23:48;;;;;;;51.30;20.38;;;-1.10;99.90;;;;;;4922953;29;20133;-77
2023/01/26 04:26:35;;;;;;;53.58;21.48;;;-1.00;99.90;;;;;;4914656;28;20085;-77
2023/01/26 04:29:02;;;;;;;49.75;20.77;;;-1.00;99.90;;;;;;4913120;29;20453;-77
2023/01/26 04:31:27;;;;;;;46.25;18.25;;;-1.00;99.90;;;;;;4926576;28;20047;-77
2023/01/26 04:33:53;;;;;;;47.60;19.58;;;-1.00;99.90;;;;;;4950085;28;20062;-77
2023/01/26 04:36:19;;;;;;;48.80;21.00;;;-0.90;99.90;;;;;;4945946;29;20054;-78
2023/01/26 04:38:45;;;;;;;48.35;19.50;;;-1.00;99.90;;;;;;4938692;29;20051;-77
2023/01/26 04:41:11;;;;;;;53.85;20.10;;;-0.80;99.90;;;;;;4939342;28;20125;-77
2023/01/26 04:43:36;;;;;;;49.28;20.05;;;-0.90;99.90;;;;;;4918486;28;20061;-77
2023/01/26 04:46:04;;;;;;;49.80;18.98;;;-1.00;99.90;;;;;;4951999;28;20107;-78
2023/01/26 04:48:29;;;;;;;50.08;20.50;;;-0.90;99.90;;;;;;4951332;28;20054;-78
2023/01/26 04:50:56;;;;;;;51.08;20.58;;;-1.00;99.90;;;;;;4940215;29;20039;-77
2023/01/26 04:53:22;;;;;;;54.33;21.10;;;-1.00;99.90;;;;;;4923364;29;20465;-78
2023/01/26 04:55:48;;;;;;;51.05;21.65;;;-0.90;99.90;;;;;;4920821;29;20056;-78
2023/01/26 04:58:14;;;;;;;52.35;21.08;;;-1.00;99.90;;;;;;4944354;28;20061;-77
2023/01/26 05:00:39;;;;;;;50.92;20.45;;;-1.00;99.90;;;;;;4924266;29;20180;-77
2023/01/26 05:03:05;;;;;;;52.20;20.52;;;-0.90;99.90;;;;;;4920901;29;20058;-77
2023/01/26 05:05:35;;;;;;;54.63;21.15;;;-1.00;99.90;;;;;;4944319;29;20082;-78
2023/01/26 05:08:02;;;;;;;46.97;21.33;;;-0.90;99.90;;;;;;4929215;29;20050;-78
2023/01/26 05:10:28;;;;;;;57.53;22.80;;;-0.90;99.90;;;;;;4942757;28;20122;-78
2023/01/26 05:12:54;;;;;;;56.75;21.77;;;-0.80;99.90;;;;;;4909271;29;20122;-77
2023/01/26 05:15:20;;;;;;;52.95;22.13;;;-0.90;99.90;;;;;;4913900;29;20047;-77
2023/01/26 05:17:45;;;;;;;54.95;22.23;;;-0.90;99.90;;;;;;4934238;28;20113;-77
2023/01/26 05:20:11;;;;;;;59.22;22.08;;;-1.00;99.90;;;;;;4924594;29;20193;-77
2023/01/26 05:22:37;;;;;;;56.53;23.23;;;-0.80;99.90;;;;;;4945329;28;20046;-77
2023/01/26 05:25:03;;;;;;;57.63;23.67;;;-0.90;99.90;;;;;;4930285;28;20066;-77
2023/01/26 05:27:29;;;;;;;59.67;24.48;;;-0.80;99.90;;;;;;4945833;28;20043;-77
2023/01/26 05:29:59;;;;;;;62.08;25.05;;;-0.90;99.90;;;;;;4946276;28;20046;-77
2023/01/26 05:32:28;;;;;;;63.50;24.75;;;-0.90;99.90;;;;;;4898385;29;20130;-78
2023/01/26 05:34:54;;;;;;;61.47;22.60;;;-0.90;99.90;;;;;;4941532;29;20126;-77
2023/01/26 05:37:19;;;;;;;52.50;21.02;;;-1.00;99.90;;;;;;4943077;29;20083;-76
2023/01/26 05:39:45;;;;;;;61.40;22.65;;;-1.10;99.90;;;;;;4942658;29;20137;-76
2023/01/26 05:42:11;;;;;;;61.33;22.83;;;-0.90;99.90;;;;;;4920912;28;20122;-77
2023/01/26 05:44:37;;;;;;;56.25;22.25;;;-0.80;99.90;;;;;;4929845;29;20043;-77
2023/01/26 05:47:03;;;;;;;57.75;22.00;;;-0.90;99.90;;;;;;4913322;28;20464;-77
2023/01/26 05:49:28;;;;;;;63.50;23.88;;;-0.90;99.90;;;;;;4939645;28;20047;-76
2023/01/26 05:51:54;;;;;;;61.65;23.15;;;-1.00;99.90;;;;;;4943162;28;20758;-76
2023/01/26 05:54:20;;;;;;;90.78;26.33;;;-1.00;99.90;;;;;;4928833;28;20039;-77
2023/01/26 05:56:46;;;;;;;68.43;23.70;;;-0.90;99.90;;;;;;4918767;28;20050;-78
2023/01/26 05:59:12;;;;;;;54.53;20.98;;;-0.90;99.90;;;;;;4936936;28;20044;-78
2023/01/26 06:01:38;;;;;;;54.35;19.88;;;-0.80;99.90;;;;;;4936892;28;20078;-78
2023/01/26 06:04:04;;;;;;;64.95;23.63;;;-0.80;99.90;;;;;;4948837;28;20047;-78
2023/01/26 06:06:29;;;;;;;64.80;22.35;;;-0.90;99.90;;;;;;4910603;29;20039;-78
2023/01/26 06:08:56;;;;;;;92.63;37.72;;;-1.00;99.90;;;;;;4942450;29;20062;-76
2023/01/26 06:11:22;;;;;;;87.93;38.50;;;-1.00;99.90;;;;;;4926049;29;20071;-76
2023/01/26 06:13:48;;;;;;;89.80;36.22;;;-1.10;99.90;;;;;;4925933;28;20475;-76
2023/01/26 06:16:14;;;;;;;77.65;34.47;;;-1.10;99.90;;;;;;4929403;29;20071;-79
2023/01/26 06:18:39;;;;;;;75.18;29.15;;;-1.00;99.90;;;;;;4913384;29;20126;-76
2023/01/26 06:21:05;;;;;;;91.78;27.30;;;-0.90;99.90;;;;;;4956687;29;20050;-77
2023/01/26 06:23:31;;;;;;;86.47;26.48;;;-1.00;99.90;;;;;;4956708;28;20071;-77
2023/01/26 06:26:00;;;;;;;69.53;24.85;;;-1.00;99.90;;;;;;4913217;29;20047;-77
2023/01/26 06:28:27;;;;;;;75.20;23.45;;;-1.00;99.90;;;;;;4925425;29;20040;-77
2023/01/26 06:31:07;;;;;;;118.10;28.38;;;-1.00;99.90;;;;;;4932806;28;20035;-77
2023/01/26 06:33:33;;;;;;;67.88;24.38;;;-1.00;99.90;;;;;;4940585;28;20047;-76
2023/01/26 06:36:03;;;;;;;66.20;23.33;;;-0.90;99.90;;;;;;4909872;29;20082;-77
2023/01/26 06:38:29;;;;;;;75.15;26.02;;;-0.80;99.90;;;;;;4947883;28;20126;-77
2023/01/26 06:41:01;;;;;;;78.55;26.42;;;-0.90;99.90;;;;;;4964420;28;20055;-77
2023/01/26 06:43:31;;;;;;;71.47;25.25;;;-0.90;99.90;;;;;;4925162;28;20043;-77
2023/01/26 06:45:58;;;;;;;71.43;26.17;;;-0.80;99.90;;;;;;4948321;28;20047;-76
2023/01/26 06:48:27;;;;;;;76.07;26.23;;;-0.70;99.90;;;;;;4963426;28;20047;-76
2023/01/26 06:50:56;;;;;;;74.05;24.58;;;-0.90;99.90;;;;;;4935000;28;20468;-77
2023/01/26 06:53:38;;;;;;;81.47;25.58;;;-0.80;99.90;;;;;;4919556;28;20415;-78
2023/01/26 06:56:05;;;;;;;99.88;28.27;;;-0.80;99.90;;;;;;4946166;29;20101;-76
2023/01/26 06:58:30;;;;;;;73.55;23.58;;;-0.90;99.90;;;;;;4915282;28;20050;-76
2023/01/26 07:00:56;;;;;;;82.65;24.60;;;-0.80;99.90;;;;;;4926098;29;20042;-76
2023/01/26 07:03:22;;;;;;;71.53;25.13;;;-0.70;99.90;;;;;;4930486;28;20205;-77
2023/01/26 07:05:48;;;;;;;90.38;26.88;;;-0.80;99.90;;;;;;4932110;29;20480;-77
2023/01/26 07:08:13;;;;;;;93.13;28.05;;;-0.90;99.90;;;;;;4940738;29;20191;-77
2023/01/26 07:10:39;;;;;;;89.13;28.50;;;-0.90;99.90;;;;;;4906824;29;20484;-77
2023/01/26 07:13:05;;;;;;;92.65;26.70;;;-0.80;99.90;;;;;;4925052;28;20054;-78
2023/01/26 07:15:31;;;;;;;82.55;24.58;;;-0.80;99.90;;;;;;4957455;29;20053;-78
2023/01/26 07:17:57;;;;;;;115.80;28.13;;;-0.80;99.90;;;;;;4949163;29;20067;-78
2023/01/26 07:20:23;;;;;;;91.35;26.17;;;-0.90;99.90;;;;;;4931933;28;20130;-77
2023/01/26 07:22:49;;;;;;;95.57;26.40;;;-0.90;99.90;;;;;;4950004;28;20134;-76
2023/01/26 07:25:16;;;;;;;84.38;25.85;;;-0.80;99.90;;;;;;4945709;28;20062;-75
2023/01/26 07:27:42;;;;;;;85.53;26.52;;;-0.90;99.90;;;;;;4919283;29;20055;-75
2023/01/26 07:30:08;;;;;;;86.55;26.38;;;-0.90;99.90;;;;;;4911043;28;20101;-75
2023/01/26 07:32:34;;;;;;;87.15;25.77;;;-0.90;99.90;;;;;;4956547;28;20070;-75
2023/01/26 07:35:00;;;;;;;119.65;31.40;;;-0.90;99.90;;;;;;4945932;28;20047;-75
2023/01/26 07:37:29;;;;;;;82.45;24.77;;;-0.90;99.90;;;;;;4939794;29;20138;-76
2023/01/26 07:39:55;;;;;;;90.65;25.02;;;-0.80;99.90;;;;;;4916274;29;20422;-75
2023/01/26 07:42:21;;;;;;;103.32;26.55;;;-0.80;99.90;;;;;;4940646;29;20106;-76
2023/01/26 07:44:46;;;;;;;77.15;24.42;;;-0.80;99.90;;;;;;4933766;29;20039;-76
2023/01/26 07:47:13;;;;;;;83.75;25.00;;;-0.70;99.90;;;;;;4926876;28;20054;-76
2023/01/26 07:49:39;;;;;;;78.95;23.90;;;-0.70;99.90;;;;;;4915834;29;20094;-76
2023/01/26 07:52:05;;;;;;;107.78;26.90;;;-0.60;99.90;;;;;;4945936;28;20085;-75
2023/01/26 07:54:31;;;;;;;97.00;25.48;;;-0.80;99.90;;;;;;4924051;29;20075;-76
2023/01/26 07:56:57;;;;;;;80.45;27.00;;;-0.70;99.90;;;;;;4934818;28;20047;-75
2023/01/26 07:59:23;;;;;;;165.25;32.72;;;-0.70;99.90;;;;;;4933399;29;20047;-75
2023/01/26 08:01:49;;;;;;;102.47;27.50;;;-0.70;99.90;;;;;;4935794;28;20057;-75
2023/01/26 08:04:15;;;;;;;112.95;29.55;;;-0.60;99.90;;;;;;4902372;29;20540;-75
2023/01/26 08:06:41;;;;;;;110.72;28.98;;;-0.60;99.90;;;;;;4923962;29;20047;-76
2023/01/26 08:09:06;;;;;;;90.13;26.27;;;-0.70;99.90;;;;;;4924828;29;20114;-76
2023/01/26 08:11:33;;;;;;;86.70;25.80;;;-0.70;99.90;;;;;;4912572;28;20077;-75
2023/01/26 08:13:59;;;;;;;84.22;26.08;;;-0.60;99.90;;;;;;4918425;28;20039;-75
2023/01/26 08:16:24;;;;;;;70.60;23.70;;;-0.70;99.90;;;;;;4924177;29;20448;-75
2023/01/26 08:18:50;;;;;;;77.85;24.92;;;-0.50;99.90;;;;;;4925507;28;20054;-75
2023/01/26 08:21:16;;;;;;;94.63;29.10;;;-0.40;99.90;;;;;;4930261;29;20057;-75
2023/01/26 08:23:42;;;;;;;72.97;23.15;;;-0.30;99.90;;;;;;4943363;28;20407;-75
2023/01/26 08:26:12;;;;;;;64.78;20.48;;;-0.50;99.90;;;;;;4937894;29;20054;-76
2023/01/26 08:28:38;;;;;;;73.43;23.38;;;-0.40;99.90;;;;;;4933507;28;20097;-77
2023/01/26 08:31:16;;;;;;;78.78;23.00;;;-0.40;99.90;;;;;;4930377;29;20040;-75
2023/01/26 08:33:42;;;;;;;83.35;25.08;;;-0.50;99.90;;;;;;4923274;29;20091;-76
2023/01/26 08:36:12;;;;;;;81.97;24.75;;;-0.50;99.90;;;;;;4915724;28;20034;-76
2023/01/26 08:38:38;;;;;;;83.47;24.60;;;-0.40;99.90;;;;;;4909118;29;20146;-77
2023/01/26 08:41:05;;;;;;;96.65;27.55;;;-0.30;99.90;;;;;;4910271;28;20134;-77
2023/01/26 08:43:30;;;;;;;85.25;24.33;;;-0.40;99.90;;;;;;4906672;28;20050;-77
2023/01/26 08:45:56;;;;;;;97.03;27.27;;;-0.40;99.90;;;;;;4915261;28;20043;-77
2023/01/26 08:48:22;;;;;;;68.32;21.38;;;-0.40;99.90;;;;;;4908991;29;20051;-77
2023/01/26 08:50:48;;;;;;;81.47;26.70;;;-0.40;99.90;;;;;;4957877;28;20495;-76
2023/01/26 08:53:14;;;;;;;79.80;25.30;;;-0.30;99.90;;;;;;4919330;28;20043;-77
2023/01/26 08:55:39;;;;;;;80.53;24.42;;;-0.20;99.90;;;;;;4943279;28;20460;-78
2023/01/26 08:58:05;;;;;;;96.47;27.15;;;0.00;99.90;;;;;;4938582;29;20516;-79
2023/01/26 09:00:32;;;;;;;74.05;24.73;;;-0.20;99.90;;;;;;4912122;28;20051;-78
2023/01/26 09:02:59;;;;;;;98.63;25.85;;;-0.30;99.90;;;;;;4938982;29;20051;-78
2023/01/26 09:05:25;;;;;;;93.88;28.08;;;-0.20;99.90;;;;;;4939933;29;20139;-78
2023/01/26 09:07:51;;;;;;;77.05;23.63;;;-0.30;99.90;;;;;;4955487;28;20054;-75
2023/01/26 09:10:16;;;;;;;88.15;27.15;;;-0.20;99.90;;;;;;4894886;29;20043;-74
2023/01/26 09:12:42;;;;;;;116.38;28.27;;;-0.30;99.90;;;;;;4921577;29;20078;-74
2023/01/26 09:15:08;;;;;;;94.57;27.30;;;-0.20;99.90;;;;;;4904194;29;20039;-74
2023/01/26 09:17:34;;;;;;;94.53;26.33;;;-0.30;99.90;;;;;;4937757;29;20078;-74
2023/01/26 09:20:00;;;;;;;100.72;27.70;;;-0.20;99.90;;;;;;4954276;29;20077;-73
2023/01/26 09:22:25;;;;;;;112.65;27.67;;;-0.40;99.90;;;;;;4947781;29;20087;-78
2023/01/26 09:24:51;;;;;;;92.70;27.05;;;-0.40;99.90;;;;;;4926238;28;20098;-77
2023/01/26 09:27:17;;;;;;;78.75;25.90;;;-0.40;99.90;;;;;;4942319;29;20062;-77
2023/01/26 09:29:43;;;;;;;82.50;23.15;;;-0.20;99.90;;;;;;4926713;29;20126;-76
2023/01/26 09:32:09;;;;;;;96.65;25.92;;;-0.20;99.90;;;;;;4926294;29;20047;-78
2023/01/26 09:34:34;;;;;;;72.53;21.88;;;-0.30;99.90;;;;;;4923477;29;20055;-78
2023/01/26 09:37:00;;;;;;;81.25;24.13;;;-0.30;99.90;;;;;;4925706;29;20047;-76
2023/01/26 09:39:26;;;;;;;66.35;21.45;;;-0.30;99.90;;;;;;4930703;29;20059;-76
2023/01/26 09:41:59;;;;;;;71.90;23.08;;;-0.30;99.90;;;;;;4937260;29;20051;-76
2023/01/26 09:44:25;;;;;;;67.75;21.67;;;-0.20;99.90;;;;;;4955040;28;20047;-76
2023/01/26 09:47:06;;;;;;;68.85;22.35;;;-0.20;99.90;;;;;;4937906;29;20479;-77
2023/01/26 09:49:52;;;;;;;57.45;20.63;;;-0.20;99.90;;;;;;4937152;29;20047;-76
2023/01/26 09:52:39;;;;;;;60.95;20.75;;;-0.20;99.90;;;;;;4938459;29;20362;-76
2023/01/26 09:55:09;;;;;;;78.70;22.38;;;-0.20;99.90;;;;;;4937731;29;20138;-76
2023/01/26 09:58:04;;;;;;;70.97;22.92;;;-0.20;99.90;;;;;;4921190;29;20476;-76
2023/01/26 10:00:32;;;;;;;63.83;21.13;;;-0.20;99.90;;;;;;4915134;29;20043;-75
2023/01/26 10:03:10;;;;;;;;;;;-0.20;99.90;;;;;;4938270;28;20086;-77
2023/01/26 10:06:13;;;;;;;52.15;17.77;;;-0.40;99.90;;;;;;4958074;28;19925;-77
2023/01/26 10:08:40;;;;;;;74.53;23.98;;;-0.20;99.90;;;;;;4934761;28;20460;-76
2023/01/26 10:11:28;;;;;;;87.93;23.75;;;-0.20;99.90;;;;;;4908500;29;20067;-76
2023/01/26 10:14:03;;;;;;;79.95;23.42;;;-0.20;99.90;;;;;;4939858;28;20412;-75
2023/01/26 10:16:34;;;;;;;62.85;20.30;;;-0.20;99.90;;;;;;4924445;28;20052;-76
2023/01/26 10:19:05;;;;;;;76.68;23.13;;;-0.20;99.90;;;;;;4935770;29;20047;-76
2023/01/26 10:21:36;;;;;;;76.85;23.23;;;-0.10;99.90;;;;;;4932340;28;20055;-76
2023/01/26 10:24:04;;;;;;;68.07;21.70;;;-0.10;99.90;;;;;;4942046;29;20437;-76
2023/01/26 10:26:36;;;;;;;71.38;25.20;;;-0.10;99.90;;;;;;4950292;29;20145;-76
2023/01/26 10:29:01;;;;;;;65.40;20.67;;;0.00;99.90;;;;;;4948512;29;20630;-76
2023/01/26 10:31:31;;;;;;;64.15;22.65;;;0.00;99.90;;;;;;4948022;28;20035;-77
2023/01/26 10:34:08;;;;;;;69.75;23.05;;;0.10;99.90;;;;;;4932303;28;20817;-77
2023/01/26 10:36:34;;;;;;;79.05;24.92;;;0.20;99.90;;;;;;4955500;28;20039;-77
2023/01/26 10:39:07;;;;;;;86.85;26.02;;;0.20;99.90;;;;;;4925732;29;20368;-77
2023/01/26 10:41:32;;;;;;;66.25;21.35;;;0.20;99.90;;;;;;4941549;29;20075;-77
2023/01/26 10:44:08;;;;;;;70.95;21.02;;;0.20;99.90;;;;;;4938182;28;20149;-77
2023/01/26 10:46:35;;;;;;;64.95;21.80;;;0.10;99.90;;;;;;4941991;28;20055;-76
2023/01/26 10:49:19;;;;;;;63.55;20.35;;;0.10;99.90;;;;;;4947289;28;20047;-76
2023/01/26 10:51:46;;;;;;;69.53;21.48;;;0.20;99.90;;;;;;4945333;28;20054;-76
2023/01/26 10:54:22;;;;;;;63.08;21.35;;;0.20;99.90;;;;;;4932737;29;20051;-79
2023/01/26 10:56:57;;;;;;;75.75;23.90;;;0.20;99.90;;;;;;4947180;29;20043;-78
2023/01/26 10:59:40;;;;;;;69.47;22.33;;;0.20;99.90;;;;;;4924628;29;20074;-78
2023/01/26 11:02:18;;;;;;;70.80;22.65;;;0.20;99.90;;;;;;4914126;28;20056;-79
2023/01/26 11:05:01;;;;;;;68.57;21.88;;;0.30;99.90;;;;;;4960275;28;20536;-78
2023/01/26 11:07:28;;;;;;;73.40;23.13;;;0.20;99.90;;;;;;4925842;29;20062;-79
2023/01/26 11:09:54;;;;;;;67.40;21.20;;;0.30;99.90;;;;;;4925748;29;20042;-78
2023/01/26 11:12:20;;;;;;;55.72;18.83;;;0.30;99.90;;;;;;4941482;29;20043;-78
2023/01/26 11:15:03;;;;;;;58.22;20.73;;;0.20;99.90;;;;;;4932712;28;20069;-79
2023/01/26 11:17:39;;;;;;;76.25;22.45;;;0.20;99.90;;;;;;4940636;29;20067;-78
2023/01/26 11:20:35;;;;;;;76.20;23.40;;;0.20;99.90;;;;;;4951466;28;20043;-78
2023/01/26 11:23:06;;;;;;;69.15;22.50;;;0.10;99.90;;;;;;4944122;28;20039;-79
2023/01/26 11:25:42;;;;;;;69.20;21.63;;;0.10;99.90;;;;;;4952871;28;20310;-77
2023/01/26 11:28:19;;;;;;;73.35;22.05;;;0.10;99.90;;;;;;4943527;29;20047;-79
2023/01/26 11:31:11;;;;;;;67.55;20.67;;;0.10;99.90;;;;;;4925139;29;20047;-78
2023/01/26 11:33:58;;;;;;;65.80;20.80;;;0.10;99.90;;;;;;4908961;29;20742;-79
2023/01/26 11:36:42;;;;;;;71.07;21.38;;;0.10;99.90;;;;;;4953849;28;20043;-76
2023/01/26 11:39:30;;;;;;;71.20;21.70;;;0.00;99.90;;;;;;4939759;29;20055;-76
2023/01/26 11:42:20;;;;;;;69.07;22.15;;;0.10;99.90;;;;;;4939342;29;20051;-75
2023/01/26 11:45:00;;;;;;;86.88;23.77;;;0.20;99.90;;;;;;4951637;28;20372;-77
2023/01/26 11:47:30;;;;;;;63.83;21.25;;;0.10;99.90;;;;;;4941292;29;20055;-77
2023/01/26 11:50:25;;;;;;;87.57;24.73;;;0.10;99.90;;;;;;4942125;28;20066;-78
2023/01/26 11:52:55;;;;;;;79.70;23.20;;;0.10;99.90;;;;;;4945745;28;20042;-77
2023/01/26 11:55:24;;;;;;;83.93;25.55;;;0.00;99.90;;;;;;4933414;29;20050;-78
2023/01/26 11:58:18;;;;;;;91.18;26.13;;;0.20;99.90;;;;;;4956414;28;20102;-78
2023/01/26 12:01:30;;;;;;;110.55;28.73;;;0.20;99.90;;;;;;4938192;28;20773;-78
2023/01/26 12:03:56;;;;;;;114.40;28.70;;;0.10;99.90;;;;;;4940603;29;20597;-77
2023/01/26 12:06:41;;;;;;;95.10;27.05;;;0.20;99.90;;;;;;4940200;29;20488;-76
2023/01/26 12:09:20;;;;;;;109.93;31.13;;;0.20;99.90;;;;;;4939437;28;20141;-77
2023/01/26 12:12:05;;;;;;;102.88;29.70;;;0.10;99.90;;;;;;4942569;28;20101;-77
2023/01/26 12:14:39;;;;;;;109.63;29.85;;;0.20;99.90;;;;;;4945861;28;20039;-77
2023/01/26 12:17:17;;;;;;;110.13;30.65;;;0.20;99.90;;;;;;4934712;29;20058;-77
2023/01/26 12:20:11;;;;;;;127.50;33.15;;;0.20;99.90;;;;;;4956648;28;20060;-77
2023/01/26 12:22:39;;;;;;;111.72;32.97;;;0.20;99.90;;;;;;4938404;29;20039;-77
2023/01/26 12:25:36;;;;;;;117.13;31.38;;;0.30;99.90;;;;;;4945392;28;20045;-77
2023/01/26 12:28:16;;;;;;;117.72;33.20;;;0.20;99.90;;;;;;4935895;29;20062;-77
2023/01/26 12:30:42;;;;;;;101.72;29.85;;;0.30;99.90;;;;;;4941293;28;20039;-77
2023/01/26 12:33:11;;;;;;;97.45;32.47;;;0.30;99.90;;;;;;4973049;28;20065;-77
2023/01/26 12:36:03;;;;;;;103.03;31.90;;;0.30;99.90;;;;;;4946820;28;20039;-77
2023/01/26 12:38:45;;;;;;;117.95;33.67;;;0.30;99.90;;;;;;4955178;29;20043;-77
2023/01/26 12:41:44;;;;;;;102.35;32.88;;;0.30;99.90;;;;;;4933194;29;20051;-78
2023/01/26 12:44:46;;;;;;;133.27;35.30;;;0.40;99.90;;;;;;4940144;29;20039;-77
2023/01/26 12:47:32;;;;;;;110.65;33.17;;;0.30;99.90;;;;;;4924497;28;20059;-77
2023/01/26 12:50:19;;;;;;;119.45;34.20;;;0.40;99.90;;;;;;4946704;28;20047;-77
2023/01/26 12:53:08;;;;;;;114.20;34.63;;;0.40;99.90;;;;;;4951209;28;20099;-77
2023/01/26 12:56:11;;;;;;;120.97;34.05;;;0.50;99.90;;;;;;4945913;29;20043;-77
2023/01/26 12:58:39;;;;;;;109.45;33.22;;;0.50;99.90;;;;;;4936064;28;20043;-77
2023/01/26 13:01:09;;;;;;;107.88;33.60;;;0.50;99.90;;;;;;4939028;29;20075;-76
2023/01/26 13:03:42;;;;;;;98.63;32.05;;;0.70;99.90;;;;;;4939250;29;20104;-77
2023/01/26 13:06:08;;;;;;;106.65;32.85;;;0.50;99.90;;;;;;4933777;28;20062;-76
2023/01/26 13:08:34;;;;;;;111.03;32.40;;;0.60;99.90;;;;;;4961309;28;20082;-77
2023/01/26 13:11:03;;;;;;;108.15;33.78;;;0.60;99.90;;;;;;4955859;28;20083;-77
2023/01/26 13:13:29;;;;;;;109.47;35.13;;;0.50;99.90;;;;;;4923190;29;20051;-77
2023/01/26 13:16:16;;;;;;;91.53;30.65;;;0.60;99.90;;;;;;4962339;28;20118;-76
2023/01/26 13:18:49;;;;;;;89.40;30.55;;;0.60;99.90;;;;;;4966774;28;20404;-76
2023/01/26 13:21:38;;;;;;;86.90;29.65;;;0.60;99.90;;;;;;4922532;29;20544;-76
2023/01/26 13:24:26;;;;;;;84.28;29.83;;;0.60;99.90;;;;;;4946058;29;20380;-77
2023/01/26 13:26:54;;;;;;;81.03;30.10;;;0.50;99.90;;;;;;4935252;29;20548;-76
2023/01/26 13:29:31;;;;;;;105.90;32.85;;;0.60;99.90;;;;;;4938484;29;20053;-76
2023/01/26 13:32:17;;;;;;;115.10;32.40;;;0.50;99.90;;;;;;4939968;28;20787;-77
2023/01/26 13:34:56;;;;;;;74.47;28.02;;;0.60;99.90;;;;;;4922542;29;20055;-76